To NAV CANADA Home Page Login to a new session Search on AWWS site Feedback and Comments Disclaimer Vers la page française équivalente Tips FAQ What's new on the site To the Forecasts and Observations / NOTAM section To "File a Flight Plan" website Publications and other links Update of the User's profile FIC Telephone Numbers My Weather Data Folder Route Weather Data Regional Weather Data Local Weather Data To the Forecasts and Observations / NOTAM section
Request Generated 05/26/2016 at 08:38:29 UTC . Weather information available at that time is displayed.

METAR/TAF

HAY RIVER/MERLYN CARTER AIRPORT/NT    

METAR CYHY 260800Z 09007KT 15SM BKN120 BKN230 04/01 A3002 RMK AC5CS1
SLP177=
METAR CYHY 260700Z 08008KT 15SM SCT120 SCT230 02/M01 A3002 RMK AC3CS1
SLP177=
METAR CYHY 260600Z 08010KT 15SM FEW120 SCT230 03/M01 A3002 RMK AC2CS1
SLP177=

TAF CYHY 260538Z 2606/2618 08008KT P6SM FEW120 SCT230
FM260900 10007KT P6SM BKN120 BKN230
FM261500 09010KT P6SM BKN060 OVC120
RMK NXT FCST BY 261200Z=
Your time UTC time
Weather data provided by Environment Canada and NAV CANADA